Time;durP1;ratioP1;P1;durP2;ratioP2;P2;SDS_P1;SDS_P2;PMS_P1;PMS_P2;Temp;Humidity;BMP_temperature;BMP_pressure;BME280_temperature;BME280_humidity;BME280_pressure;Samples;Min_cycle;Max_cycle;Signal;HPM_P1;HPM_P2
2022/12/09 00:01:13;;;;;;;12.32;7.85;;;20.50;99.90;;;;;;5032842;28;20047;-47
2022/12/09 00:03:39;;;;;;;15.20;7.80;;;20.40;99.90;;;;;;5032731;28;20108;-46
2022/12/09 00:06:11;;;;;;;15.65;9.40;;;20.50;99.90;;;;;;5032774;28;20117;-47
2022/12/09 00:08:37;;;;;;;11.48;7.40;;;20.50;99.90;;;;;;5032829;28;20412;-47
2022/12/09 00:11:03;;;;;;;11.80;7.07;;;20.50;99.90;;;;;;5032704;28;20052;-47
2022/12/09 00:13:29;;;;;;;14.55;7.53;;;20.40;99.90;;;;;;5032704;28;20017;-47
2022/12/09 00:15:55;;;;;;;11.32;7.68;;;20.50;99.90;;;;;;5032531;28;20124;-46
2022/12/09 00:18:21;;;;;;;10.82;6.70;;;20.50;99.90;;;;;;5031960;28;20531;-46
2022/12/09 00:20:47;;;;;;;10.52;6.70;;;20.50;99.90;;;;;;5032666;28;20117;-46
2022/12/09 00:23:12;;;;;;;13.18;7.43;;;20.40;99.90;;;;;;5032455;28;20025;-46
2022/12/09 00:25:38;;;;;;;12.25;7.13;;;20.50;99.90;;;;;;5032370;28;20041;-46
2022/12/09 00:28:04;;;;;;;11.25;6.80;;;20.40;99.90;;;;;;5014751;28;20022;-47
2022/12/09 00:30:30;;;;;;;12.05;7.38;;;20.50;99.90;;;;;;5014959;28;20139;-45
2022/12/09 00:32:55;;;;;;;13.27;7.65;;;20.50;99.90;;;;;;5014684;28;20021;-45
2022/12/09 00:35:22;;;;;;;13.45;7.97;;;20.50;99.90;;;;;;5032479;28;20097;-46
2022/12/09 00:37:48;;;;;;;12.73;6.95;;;20.40;99.90;;;;;;5032311;28;20036;-46
2022/12/09 00:40:14;;;;;;;9.80;6.72;;;20.50;99.90;;;;;;5032256;28;20021;-46
2022/12/09 00:42:40;;;;;;;12.52;7.38;;;20.50;99.90;;;;;;5032286;28;20029;-46
2022/12/09 00:45:07;;;;;;;9.98;6.25;;;20.50;99.90;;;;;;5032087;28;20088;-47
2022/12/09 00:47:33;;;;;;;11.23;7.05;;;20.50;99.90;;;;;;5032114;28;20052;-46
2022/12/09 00:49:59;;;;;;;8.37;5.30;;;20.40;99.90;;;;;;5032178;28;20025;-47
2022/12/09 00:52:25;;;;;;;9.10;6.30;;;20.50;99.90;;;;;;5032037;28;20018;-47
2022/12/09 00:54:51;;;;;;;11.80;6.97;;;20.50;99.90;;;;;;5032358;28;20021;-47
2022/12/09 00:57:16;;;;;;;11.80;6.65;;;20.40;99.90;;;;;;5032050;28;20029;-47
2022/12/09 00:59:42;;;;;;;12.55;7.13;;;20.40;99.90;;;;;;5032365;28;20069;-47
2022/12/09 01:02:08;;;;;;;10.35;6.72;;;20.40;99.90;;;;;;5032222;28;20033;-47
2022/12/09 01:04:34;;;;;;;13.73;8.45;;;20.40;99.90;;;;;;5031990;28;20049;-47
2022/12/09 01:06:59;;;;;;;10.23;6.40;;;20.40;99.90;;;;;;5032066;28;20068;-46
2022/12/09 01:09:25;;;;;;;13.45;7.70;;;20.40;99.90;;;;;;5032532;28;20022;-47
2022/12/09 01:11:51;;;;;;;12.77;7.13;;;20.40;99.90;;;;;;4998105;28;20064;-47
2022/12/09 01:14:17;;;;;;;11.35;6.90;;;20.40;99.90;;;;;;5031903;28;20044;-47
2022/12/09 01:16:42;;;;;;;9.48;5.85;;;20.40;99.90;;;;;;5031828;28;20026;-47
2022/12/09 01:19:12;;;;;;;9.95;6.28;;;20.40;99.90;;;;;;5031936;28;20033;-46
2022/12/09 01:21:38;;;;;;;10.70;6.78;;;20.40;99.90;;;;;;5031918;28;20029;-46
2022/12/09 01:24:10;;;;;;;11.80;7.30;;;20.40;99.90;;;;;;5031871;28;20029;-45
2022/12/09 01:26:37;;;;;;;13.15;7.30;;;20.40;99.90;;;;;;5031855;28;20037;-45
2022/12/09 01:29:03;;;;;;;10.87;6.80;;;20.50;99.90;;;;;;5031778;28;20022;-45
2022/12/09 01:31:29;;;;;;;10.23;6.13;;;20.40;99.90;;;;;;5035754;28;20040;-45
2022/12/09 01:33:55;;;;;;;10.50;6.10;;;20.40;99.90;;;;;;5035898;28;20025;-45
2022/12/09 01:36:23;;;;;;;11.18;6.30;;;20.50;99.90;;;;;;5035732;28;20025;-46
2022/12/09 01:38:49;;;;;;;9.75;6.35;;;20.40;99.90;;;;;;5035516;28;20029;-46
2022/12/09 01:41:17;;;;;;;10.80;5.93;;;20.50;99.90;;;;;;5035695;28;20028;-46
2022/12/09 01:43:43;;;;;;;10.98;6.40;;;20.50;99.90;;;;;;5018043;28;20033;-45
2022/12/09 01:46:09;;;;;;;9.75;6.13;;;20.50;99.90;;;;;;5035447;28;20443;-46
2022/12/09 01:48:42;;;;;;;8.98;6.50;;;20.50;99.90;;;;;;5035569;28;20021;-46
2022/12/09 01:51:19;;;;;;;8.95;6.15;;;20.50;99.90;;;;;;5035421;28;20414;-46
2022/12/09 01:53:48;;;;;;;13.85;6.90;;;20.50;99.90;;;;;;5017592;28;20067;-46
2022/12/09 01:56:28;;;;;;;12.68;6.05;;;20.50;99.90;;;;;;5035168;28;20029;-46
2022/12/09 01:58:58;;;;;;;10.05;6.82;;;20.50;99.90;;;;;;5035556;28;20053;-46
2022/12/09 02:01:24;;;;;;;8.52;5.88;;;20.50;99.90;;;;;;5035894;28;20128;-46
2022/12/09 02:03:50;;;;;;;9.95;5.97;;;20.50;99.90;;;;;;5035204;28;20515;-46
2022/12/09 02:06:16;;;;;;;8.02;5.22;;;20.40;99.90;;;;;;5034970;28;20029;-46
2022/12/09 02:08:42;;;;;;;8.80;5.78;;;20.40;99.90;;;;;;5035128;28;20052;-45
2022/12/09 02:11:17;;;;;;;9.00;5.53;;;20.40;99.90;;;;;;5034953;28;20415;-45
2022/12/09 02:14:07;;;;;;;8.45;5.32;;;20.40;99.90;;;;;;5034819;28;20033;-45
2022/12/09 02:16:44;;;;;;;9.57;6.32;;;20.40;99.90;;;;;;5034887;28;20028;-44
2022/12/09 02:19:25;;;;;;;6.75;4.45;;;20.40;99.90;;;;;;5016969;28;20092;-47
2022/12/09 02:21:57;;;;;;;9.98;5.60;;;20.40;99.90;;;;;;5034854;28;20542;-45
2022/12/09 02:24:51;;;;;;;11.00;6.10;;;20.40;99.90;;;;;;5034549;28;20029;-45
2022/12/09 02:27:24;;;;;;;10.68;6.13;;;20.40;99.90;;;;;;5034641;28;20029;-46
2022/12/09 02:30:13;;;;;;;7.30;4.72;;;20.40;99.90;;;;;;5034813;28;20048;-46
2022/12/09 02:32:39;;;;;;;8.75;5.43;;;20.40;99.90;;;;;;5016871;28;20472;-46
2022/12/09 02:35:31;;;;;;;7.07;4.75;;;20.40;99.90;;;;;;5034607;28;20084;-45
2022/12/09 02:38:12;;;;;;;8.15;5.00;;;20.40;99.90;;;;;;5016407;28;20046;-46
2022/12/09 02:40:49;;;;;;;11.10;5.90;;;20.30;99.90;;;;;;5034168;28;20084;-46
2022/12/09 02:43:17;;;;;;;12.30;7.03;;;20.30;99.90;;;;;;5016461;28;20104;-46
2022/12/09 02:45:44;;;;;;;8.05;5.20;;;20.40;99.90;;;;;;5016475;28;20120;-46
2022/12/09 02:48:12;;;;;;;15.95;5.18;;;20.30;99.90;;;;;;5034737;28;20025;-46
2022/12/09 02:50:40;;;;;;;10.43;5.65;;;20.30;99.90;;;;;;5034413;28;20349;-46
2022/12/09 02:53:09;;;;;;;10.23;4.90;;;20.30;99.90;;;;;;5004597;28;20092;-45
2022/12/09 02:55:37;;;;;;;11.15;5.25;;;20.30;99.90;;;;;;5021800;28;20029;-46
2022/12/09 02:58:03;;;;;;;8.20;5.05;;;20.30;99.90;;;;;;5033863;28;20080;-47
2022/12/09 03:00:29;;;;;;;9.75;5.05;;;20.30;99.90;;;;;;5070356;22;20060;-58
2022/12/09 03:02:59;;;;;;;17.98;4.68;;;20.30;99.90;;;;;;5071950;28;20024;-58
2022/12/09 03:05:25;;;;;;;11.02;5.63;;;20.30;99.90;;;;;;5055608;28;20029;-59
2022/12/09 03:08:09;;;;;;;12.48;5.65;;;20.30;99.90;;;;;;5073392;28;20028;-60
2022/12/09 03:10:55;;;;;;;11.88;5.32;;;20.30;99.90;;;;;;5062075;28;20086;-56
2022/12/09 03:13:43;;;;;;;9.35;4.70;;;20.30;99.90;;;;;;5055628;28;20020;-55
2022/12/09 03:16:30;;;;;;;9.05;5.13;;;20.20;99.90;;;;;;5055623;28;20098;-56
2022/12/09 03:19:22;;;;;;;10.85;4.25;;;20.30;99.90;;;;;;5060491;28;20054;-55
2022/12/09 03:21:50;;;;;;;7.30;4.80;;;20.30;99.90;;;;;;5028320;28;20029;-55
2022/12/09 03:24:23;;;;;;;9.07;4.85;;;20.30;99.90;;;;;;5073384;28;20052;-56
2022/12/09 03:26:50;;;;;;;9.25;4.28;;;20.20;99.90;;;;;;5054975;28;20037;-55
2022/12/09 03:29:20;;;;;;;7.05;3.95;;;20.20;99.90;;;;;;5048717;28;20024;-55
2022/12/09 03:31:47;;;;;;;11.80;4.90;;;20.20;99.90;;;;;;5072796;28;20027;-54
2022/12/09 03:34:21;;;;;;;8.65;4.72;;;20.30;99.90;;;;;;5073067;28;20051;-54
2022/12/09 03:36:50;;;;;;;7.60;4.30;;;20.20;99.90;;;;;;5072540;28;20024;-54
2022/12/09 03:39:22;;;;;;;8.00;4.63;;;20.20;99.90;;;;;;5072924;28;20021;-55
2022/12/09 03:41:54;;;;;;;8.13;4.63;;;20.20;99.90;;;;;;5073139;28;20363;-55
2022/12/09 03:44:35;;;;;;;11.52;3.95;;;20.20;99.90;;;;;;5072592;28;20067;-54
2022/12/09 03:47:03;;;;;;;10.38;3.95;;;20.30;99.90;;;;;;5055049;28;20494;-56
2022/12/09 03:49:29;;;;;;;6.75;4.10;;;20.20;99.90;;;;;;5073204;28;20103;-56
2022/12/09 03:52:12;;;;;;;10.25;4.35;;;20.20;99.90;;;;;;5071295;28;20558;-57
2022/12/09 03:54:44;;;;;;;7.75;3.92;;;20.20;99.90;;;;;;5053269;28;20066;-55
2022/12/09 03:57:15;;;;;;;9.80;4.30;;;20.20;99.90;;;;;;5072612;28;20489;-56
2022/12/09 03:59:45;;;;;;;8.45;4.18;;;20.20;99.90;;;;;;5062991;22;20613;-46
2022/12/09 04:02:12;;;;;;;8.70;4.60;;;20.30;99.90;;;;;;5031726;28;20035;-45
2022/12/09 04:04:40;;;;;;;7.65;4.53;;;20.20;99.90;;;;;;5032393;28;20022;-45
2022/12/09 04:07:07;;;;;;;8.52;4.22;;;20.20;99.90;;;;;;5032376;28;20056;-45
2022/12/09 04:09:32;;;;;;;7.32;4.22;;;20.20;99.90;;;;;;5032788;28;20039;-45
2022/12/09 04:11:58;;;;;;;6.43;3.88;;;20.20;99.90;;;;;;5032462;28;20070;-45
2022/12/09 04:14:24;;;;;;;8.45;3.95;;;20.30;99.90;;;;;;5032143;28;20032;-45
2022/12/09 04:16:50;;;;;;;8.18;3.88;;;20.20;99.90;;;;;;5031496;28;20637;-45
2022/12/09 04:19:15;;;;;;;9.18;3.95;;;20.20;99.90;;;;;;5031355;28;20079;-45
2022/12/09 04:21:41;;;;;;;9.02;3.65;;;20.20;99.90;;;;;;5031080;28;20078;-45
2022/12/09 04:24:08;;;;;;;8.10;4.50;;;20.30;99.90;;;;;;5031105;28;20017;-46
2022/12/09 04:26:33;;;;;;;6.15;3.33;;;20.20;99.90;;;;;;5031448;28;20042;-45
2022/12/09 04:29:00;;;;;;;6.78;3.67;;;20.30;99.90;;;;;;5031780;28;20035;-46
2022/12/09 04:31:26;;;;;;;7.88;3.40;;;20.30;99.90;;;;;;5032446;28;20025;-46
2022/12/09 04:33:52;;;;;;;6.28;3.40;;;20.20;99.90;;;;;;5030263;28;20420;-45
2022/12/09 04:36:19;;;;;;;6.63;3.60;;;20.30;99.90;;;;;;5029051;28;20108;-45
2022/12/09 04:38:45;;;;;;;7.82;3.28;;;20.30;99.90;;;;;;5031155;28;20494;-45
2022/12/09 04:41:12;;;;;;;6.25;3.50;;;20.20;99.90;;;;;;5032502;28;20029;-45
2022/12/09 04:43:38;;;;;;;8.35;3.97;;;20.20;99.90;;;;;;5032263;28;20029;-46
2022/12/09 04:46:06;;;;;;;9.27;4.20;;;20.30;99.90;;;;;;5014672;28;20030;-46
2022/12/09 04:48:32;;;;;;;6.25;3.53;;;20.20;99.90;;;;;;5032493;28;20028;-46
2022/12/09 04:50:58;;;;;;;8.77;3.20;;;20.30;99.90;;;;;;5032105;28;20499;-46
2022/12/09 04:53:25;;;;;;;8.48;3.72;;;20.20;99.90;;;;;;5032146;28;20109;-47
2022/12/09 04:56:10;;;;;;;9.55;4.47;;;20.20;99.90;;;;;;5032182;28;20053;-46
2022/12/09 04:58:36;;;;;;;7.13;3.33;;;20.20;99.90;;;;;;5032369;28;20057;-46
2022/12/09 05:01:09;;;;;;;5.15;2.97;;;20.30;99.90;;;;;;5033000;28;20454;-46
2022/12/09 05:03:35;;;;;;;5.80;3.47;;;20.30;99.90;;;;;;5032133;28;20022;-46
2022/12/09 05:06:11;;;;;;;6.43;3.40;;;20.20;99.90;;;;;;5035132;28;20541;-45
2022/12/09 05:08:38;;;;;;;3.90;2.45;;;20.20;99.90;;;;;;5036418;28;20025;-46
2022/12/09 05:11:04;;;;;;;7.13;3.72;;;20.20;99.90;;;;;;5036430;28;20484;-46
2022/12/09 05:13:30;;;;;;;6.47;2.88;;;20.20;99.90;;;;;;5036194;28;20093;-46
2022/12/09 05:16:05;;;;;;;4.35;2.90;;;20.20;99.90;;;;;;5035893;28;20033;-46
2022/12/09 05:18:30;;;;;;;6.55;3.30;;;20.20;99.90;;;;;;5035966;28;20030;-46
2022/12/09 05:20:56;;;;;;;6.75;3.13;;;20.20;99.90;;;;;;5036115;28;20029;-46
2022/12/09 05:23:22;;;;;;;8.40;3.20;;;20.20;99.90;;;;;;5035962;28;20148;-46
2022/12/09 05:25:48;;;;;;;7.70;3.75;;;20.20;99.90;;;;;;5035905;28;20041;-46
2022/12/09 05:28:14;;;;;;;5.05;2.50;;;20.30;99.90;;;;;;5035850;28;20394;-46
2022/12/09 05:30:39;;;;;;;8.57;3.58;;;20.20;99.90;;;;;;5035735;28;20034;-46
2022/12/09 05:33:05;;;;;;;7.80;3.03;;;20.20;99.90;;;;;;5036027;28;20044;-46
2022/12/09 05:35:31;;;;;;;4.32;2.45;;;20.20;99.90;;;;;;5017916;28;20379;-46
2022/12/09 05:37:57;;;;;;;5.90;2.83;;;20.20;99.90;;;;;;5035753;28;20151;-46
2022/12/09 05:40:23;;;;;;;7.00;3.65;;;20.20;99.90;;;;;;5035542;28;20378;-47
2022/12/09 05:42:49;;;;;;;5.63;2.53;;;20.20;99.90;;;;;;5035554;28;20371;-46
2022/12/09 05:45:14;;;;;;;6.53;3.00;;;20.20;99.90;;;;;;5035305;28;20033;-46
2022/12/09 05:47:40;;;;;;;5.80;2.80;;;20.20;99.90;;;;;;5035522;28;20509;-45
2022/12/09 05:50:07;;;;;;;5.05;2.45;;;20.20;99.90;;;;;;5035620;28;20039;-46
2022/12/09 05:52:35;;;;;;;5.60;2.75;;;20.20;99.90;;;;;;5035407;28;20487;-46
2022/12/09 05:55:05;;;;;;;5.28;2.83;;;20.20;99.90;;;;;;5035418;28;20072;-46
2022/12/09 05:57:33;;;;;;;6.38;2.72;;;20.20;99.90;;;;;;5035302;28;20490;-46
2022/12/09 05:59:59;;;;;;;4.70;2.42;;;20.20;99.90;;;;;;5017399;28;20464;-46
2022/12/09 06:02:25;;;;;;;9.30;3.33;;;20.20;99.90;;;;;;5035092;28;20112;-46
2022/12/09 06:04:51;;;;;;;7.90;2.70;;;20.20;99.90;;;;;;5035100;28;20073;-46
2022/12/09 06:07:17;;;;;;;5.25;2.45;;;20.20;99.90;;;;;;5035127;28;20463;-46
2022/12/09 06:09:43;;;;;;;7.28;3.00;;;20.20;99.90;;;;;;5035018;28;20021;-45
2022/12/09 06:12:09;;;;;;;4.15;2.33;;;20.20;99.90;;;;;;5035160;28;20045;-45
2022/12/09 06:14:35;;;;;;;4.72;2.28;;;20.20;99.90;;;;;;5034915;28;20031;-45
2022/12/09 06:17:01;;;;;;;7.05;2.75;;;20.20;99.90;;;;;;5034746;28;20112;-45
2022/12/09 06:19:26;;;;;;;5.05;2.42;;;20.20;99.90;;;;;;5034852;28;20025;-45
2022/12/09 06:21:52;;;;;;;4.65;2.10;;;20.20;99.90;;;;;;5034878;28;20025;-45
2022/12/09 06:24:18;;;;;;;4.20;2.20;;;20.20;99.90;;;;;;5034680;28;20813;-45
2022/12/09 06:26:44;;;;;;;5.70;2.50;;;20.20;99.90;;;;;;5034481;28;20040;-45
2022/12/09 06:29:09;;;;;;;4.18;2.17;;;20.20;99.90;;;;;;5035079;28;20032;-45
2022/12/09 06:31:35;;;;;;;4.78;2.90;;;20.20;99.90;;;;;;5034670;28;20475;-45
2022/12/09 06:34:01;;;;;;;5.30;2.50;;;20.20;99.90;;;;;;5034565;28;20105;-45
2022/12/09 06:36:28;;;;;;;3.63;2.42;;;20.20;99.90;;;;;;5034566;28;20026;-45
2022/12/09 06:38:55;;;;;;;8.93;2.75;;;20.20;99.90;;;;;;5034339;28;20092;-46
2022/12/09 06:41:21;;;;;;;3.87;2.30;;;20.20;99.90;;;;;;5034467;28;20067;-47
2022/12/09 06:43:47;;;;;;;6.18;2.75;;;20.20;99.90;;;;;;5034437;28;20265;-46
2022/12/09 06:46:21;;;;;;;4.60;2.17;;;20.20;99.90;;;;;;5034295;28;20060;-47
2022/12/09 06:48:47;;;;;;;4.78;2.20;;;20.20;99.90;;;;;;5034339;28;20048;-47
2022/12/09 06:51:13;;;;;;;4.72;2.33;;;20.20;99.90;;;;;;5034442;28;20382;-46
2022/12/09 06:53:39;;;;;;;6.25;2.53;;;20.20;99.90;;;;;;5034370;28;20021;-47
2022/12/09 06:56:07;;;;;;;4.65;2.10;;;20.20;99.90;;;;;;5034115;28;20029;-47
2022/12/09 06:58:33;;;;;;;8.82;2.47;;;20.20;99.90;;;;;;5033951;28;20459;-47
2022/12/09 07:01:07;;;;;;;6.90;2.80;;;20.20;99.90;;;;;;5033920;28;20057;-47
2022/12/09 07:03:33;;;;;;;6.53;3.08;;;20.20;99.90;;;;;;5034288;28;20028;-47
2022/12/09 07:06:00;;;;;;;6.50;3.13;;;20.20;99.90;;;;;;5034058;28;20117;-47
2022/12/09 07:08:26;;;;;;;4.97;3.13;;;20.20;99.90;;;;;;5033940;28;20025;-46
2022/12/09 07:10:52;;;;;;;8.18;2.97;;;20.20;99.90;;;;;;5033911;28;20106;-50
2022/12/09 07:13:17;;;;;;;10.30;3.33;;;20.20;99.90;;;;;;5033724;28;20049;-46
2022/12/09 07:15:43;;;;;;;5.97;2.97;;;20.20;99.90;;;;;;5016122;28;20021;-46
2022/12/09 07:18:09;;;;;;;7.10;2.95;;;20.20;99.90;;;;;;5033865;28;20332;-46
2022/12/09 07:20:34;;;;;;;8.98;3.72;;;20.10;99.90;;;;;;5033546;28;20029;-46
2022/12/09 07:23:00;;;;;;;11.23;3.28;;;20.10;99.90;;;;;;5016037;28;20061;-46
2022/12/09 07:25:26;;;;;;;5.95;2.70;;;20.10;99.90;;;;;;5033544;28;20089;-47
2022/12/09 07:27:52;;;;;;;8.48;3.20;;;20.10;99.90;;;;;;5015314;28;20430;-46
2022/12/09 07:30:17;;;;;;;4.32;2.35;;;20.10;99.90;;;;;;5033439;28;20022;-46
2022/12/09 07:32:43;;;;;;;6.75;3.38;;;20.10;99.90;;;;;;5033689;28;20526;-46
2022/12/09 07:35:09;;;;;;;5.88;2.88;;;20.10;99.90;;;;;;5033298;28;20021;-46
2022/12/09 07:37:35;;;;;;;7.68;3.10;;;20.10;99.90;;;;;;5033108;28;20029;-46
2022/12/09 07:40:01;;;;;;;8.10;3.00;;;20.10;99.90;;;;;;5033303;28;20032;-46
2022/12/09 07:42:26;;;;;;;9.48;3.20;;;20.10;99.90;;;;;;5033357;28;20384;-46
2022/12/09 07:44:52;;;;;;;6.38;2.90;;;20.10;99.90;;;;;;5033144;28;20048;-47
2022/12/09 07:47:18;;;;;;;5.50;2.85;;;20.00;99.90;;;;;;5033320;28;20025;-46
2022/12/09 07:49:44;;;;;;;7.97;3.10;;;20.10;99.90;;;;;;5015872;28;20025;-46
2022/12/09 07:52:11;;;;;;;4.20;2.60;;;20.00;99.90;;;;;;5032861;28;20038;-46
2022/12/09 07:54:37;;;;;;;6.28;2.85;;;20.00;99.90;;;;;;5032965;28;20049;-46
2022/12/09 07:57:02;;;;;;;9.02;3.22;;;20.00;99.90;;;;;;5015349;28;20446;-46
2022/12/09 07:59:28;;;;;;;6.63;2.67;;;20.00;99.90;;;;;;5032617;28;20026;-46
2022/12/09 08:01:54;;;;;;;6.28;2.90;;;20.00;99.90;;;;;;5032848;28;20057;-47
2022/12/09 08:04:20;;;;;;;7.43;2.97;;;20.00;99.90;;;;;;5032669;28;20057;-45
2022/12/09 08:06:45;;;;;;;4.43;2.55;;;20.00;99.90;;;;;;5032802;28;20037;-45
2022/12/09 08:09:12;;;;;;;6.32;3.00;;;20.00;99.90;;;;;;5032638;28;20083;-45
2022/12/09 08:11:39;;;;;;;12.77;3.83;;;20.00;99.90;;;;;;5032652;28;20045;-44
2022/12/09 08:14:07;;;;;;;7.25;2.92;;;20.00;99.90;;;;;;5032616;28;20084;-44
2022/12/09 08:16:33;;;;;;;8.80;2.80;;;20.00;99.90;;;;;;5032635;28;20491;-46
2022/12/09 08:18:59;;;;;;;9.35;3.30;;;20.00;99.90;;;;;;5032585;28;20356;-45
2022/12/09 08:21:28;;;;;;;7.25;3.20;;;20.00;99.90;;;;;;5032397;28;20028;-45
2022/12/09 08:23:56;;;;;;;8.40;2.97;;;20.00;99.90;;;;;;5014715;28;20328;-45
2022/12/09 08:26:23;;;;;;;;;;;20.00;99.90;;;;;;5032882;28;20365;-46
2022/12/09 08:28:49;;;;;;;9.38;2.90;;;20.00;99.90;;;;;;5032468;28;20413;-46
2022/12/09 08:31:18;;;;;;;8.32;3.03;;;20.00;99.90;;;;;;5032602;28;20032;-45
2022/12/09 08:33:45;;;;;;;8.07;3.38;;;20.00;99.90;;;;;;5014831;28;20024;-44
2022/12/09 08:36:14;;;;;;;9.07;3.03;;;20.00;99.90;;;;;;5032284;28;20123;-45
2022/12/09 08:38:40;;;;;;;7.78;2.90;;;20.00;99.90;;;;;;5031880;28;20026;-44
2022/12/09 08:41:18;;;;;;;6.43;2.50;;;20.00;99.90;;;;;;5031888;28;20125;-45
2022/12/09 08:43:44;;;;;;;8.38;2.90;;;20.00;99.90;;;;;;5032209;28;20026;-46
2022/12/09 08:46:11;;;;;;;8.48;2.72;;;20.10;99.90;;;;;;5032141;28;20037;-45
2022/12/09 08:48:39;;;;;;;7.38;2.28;;;20.10;99.90;;;;;;5032241;28;20021;-45
2022/12/09 08:51:05;;;;;;;6.30;2.47;;;20.00;99.90;;;;;;5032211;28;20032;-46
2022/12/09 08:53:31;;;;;;;8.47;2.80;;;20.10;99.90;;;;;;5032196;28;20033;-45
2022/12/09 08:55:57;;;;;;;7.47;2.50;;;20.10;99.90;;;;;;5014448;28;20032;-46
2022/12/09 08:58:23;;;;;;;5.00;2.63;;;20.10;99.90;;;;;;5014284;28;20048;-45
2022/12/09 09:00:49;;;;;;;6.60;2.67;;;20.10;99.90;;;;;;5031947;28;20491;-45
2022/12/09 09:03:15;;;;;;;9.20;4.07;;;20.10;99.90;;;;;;5032127;28;20067;-46
2022/12/09 09:05:41;;;;;;;7.10;2.90;;;20.10;99.90;;;;;;5031944;28;20487;-46
2022/12/09 09:08:06;;;;;;;7.13;3.50;;;20.10;99.90;;;;;;5031937;28;20383;-46
2022/12/09 09:10:32;;;;;;;6.35;2.80;;;20.10;99.90;;;;;;5031710;28;20026;-46
2022/12/09 09:12:58;;;;;;;6.85;2.90;;;20.10;99.90;;;;;;5031933;28;20503;-46
2022/12/09 09:15:24;;;;;;;5.03;2.92;;;20.10;99.90;;;;;;5014238;28;20164;-45
2022/12/09 09:17:52;;;;;;;6.90;3.33;;;20.10;99.90;;;;;;5032006;28;20053;-45
2022/12/09 09:20:18;;;;;;;;;;;20.10;99.90;;;;;;5032516;28;20028;-45
2022/12/09 09:22:43;;;;;;;9.38;3.83;;;20.10;99.90;;;;;;5031751;28;19905;-46
2022/12/09 09:25:09;;;;;;;7.93;3.55;;;20.10;99.90;;;;;;5031504;28;20076;-45
2022/12/09 09:27:35;;;;;;;12.63;3.97;;;20.10;99.90;;;;;;5031755;28;20479;-46
2022/12/09 09:30:01;;;;;;;6.93;3.53;;;20.10;99.90;;;;;;5031689;28;20483;-46
2022/12/09 09:32:26;;;;;;;9.52;5.00;;;20.10;99.90;;;;;;5031815;28;20463;-45
2022/12/09 09:34:52;;;;;;;10.43;3.30;;;20.10;99.90;;;;;;5031503;28;20021;-45
2022/12/09 09:37:18;;;;;;;7.82;3.60;;;20.10;99.90;;;;;;5031665;28;20033;-45
2022/12/09 09:39:44;;;;;;;8.60;3.50;;;20.10;99.90;;;;;;5031549;28;20028;-45
2022/12/09 09:42:18;;;;;;;6.10;3.33;;;20.10;99.90;;;;;;5031870;28;20029;-45
2022/12/09 09:44:46;;;;;;;11.38;4.20;;;20.10;99.90;;;;;;5031504;28;20098;-45
2022/12/09 09:47:32;;;;;;;8.55;3.75;;;20.10;99.90;;;;;;5014069;28;20357;-45
2022/12/09 09:50:08;;;;;;;8.23;3.88;;;20.10;99.90;;;;;;5031628;28;20075;-46
2022/12/09 09:52:39;;;;;;;9.35;3.92;;;20.20;99.90;;;;;;5035122;28;20529;-46
2022/12/09 09:55:14;;;;;;;9.02;4.15;;;20.10;99.90;;;;;;5035169;28;20025;-46
2022/12/09 09:57:54;;;;;;;10.18;3.47;;;20.10;99.90;;;;;;5035364;28;20391;-46
2022/12/09 10:00:25;;;;;;;8.07;3.53;;;20.10;99.90;;;;;;5035252;28;20510;-46
2022/12/09 10:02:58;;;;;;;5.15;3.78;;;20.10;99.90;;;;;;5035346;28;20094;-47
2022/12/09 10:05:48;;;;;;;8.25;3.35;;;20.20;99.90;;;;;;5017596;28;20479;-47
2022/12/09 10:08:26;;;;;;;6.40;3.25;;;20.10;99.90;;;;;;5017233;28;20033;-46
2022/12/09 10:11:06;;;;;;;4.95;3.42;;;20.10;99.90;;;;;;5035009;28;20068;-46
2022/12/09 10:13:35;;;;;;;6.57;3.50;;;20.10;99.90;;;;;;5034971;28;20063;-46
2022/12/09 10:16:25;;;;;;;8.88;3.35;;;20.10;99.90;;;;;;5034710;28;20028;-46
2022/12/09 10:19:10;;;;;;;7.40;3.95;;;20.10;99.90;;;;;;5035122;28;20021;-46
2022/12/09 10:21:46;;;;;;;8.05;3.17;;;20.10;99.90;;;;;;5034821;28;20029;-46
2022/12/09 10:24:21;;;;;;;8.37;3.43;;;20.10;99.90;;;;;;5034782;28;20013;-47
2022/12/09 10:27:26;;;;;;;7.53;3.60;;;20.10;99.90;;;;;;5034577;28;20037;-46
2022/12/09 10:30:04;;;;;;;6.97;3.65;;;20.10;99.90;;;;;;5034878;28;20482;-47
2022/12/09 10:32:32;;;;;;;6.20;3.53;;;20.10;99.90;;;;;;5034609;28;20076;-46
2022/12/09 10:34:59;;;;;;;8.95;3.28;;;20.00;99.90;;;;;;5017152;28;20104;-46
2022/12/09 10:37:28;;;;;;;7.93;3.38;;;20.10;99.90;;;;;;5034692;28;20029;-46
2022/12/09 10:40:06;;;;;;;10.10;3.88;;;20.00;99.90;;;;;;5034644;28;20021;-46
2022/12/09 10:45:31;;;;;;;7.28;3.60;;;20.00;99.90;;;;;;5034500;28;20068;-46
2022/12/09 10:47:57;;;;;;;8.18;3.33;;;20.00;99.90;;;;;;5034258;28;20340;-46
2022/12/09 10:50:30;;;;;;;8.65;4.53;;;20.00;99.90;;;;;;5034665;28;20030;-46
2022/12/09 10:53:02;;;;;;;8.25;3.97;;;20.00;99.90;;;;;;5034399;28;20104;-46
2022/12/09 10:55:38;;;;;;;8.68;3.67;;;20.00;99.90;;;;;;5034126;28;20036;-46
2022/12/09 10:58:21;;;;;;;7.25;4.10;;;20.00;99.90;;;;;;5033984;28;20493;-45
2022/12/09 11:01:14;;;;;;;8.07;4.43;;;20.00;99.90;;;;;;5033728;28;20554;-46
2022/12/09 11:03:53;;;;;;;10.30;5.75;;;20.00;99.90;;;;;;5030749;28;20033;-46
2022/12/09 11:06:36;;;;;;;10.18;3.97;;;20.00;99.90;;;;;;5033850;28;20037;-45
2022/12/09 11:09:02;;;;;;;9.07;4.82;;;20.00;99.90;;;;;;5033842;28;20157;-45
2022/12/09 11:11:46;;;;;;;9.73;4.70;;;20.00;99.90;;;;;;5033891;28;20026;-46
2022/12/09 11:14:24;;;;;;;10.98;5.10;;;20.00;99.90;;;;;;5033680;28;20021;-45
2022/12/09 11:16:57;;;;;;;;;;;20.00;99.90;;;;;;5034058;28;20030;-45
2022/12/09 11:19:34;;;;;;;10.63;5.97;;;20.00;99.90;;;;;;5033791;28;20310;-46
2022/12/09 11:22:18;;;;;;;;;;;20.00;99.90;;;;;;5033849;28;20022;-45
2022/12/09 11:24:44;;;;;;;12.32;5.97;;;20.00;99.90;;;;;;5032990;28;19912;-45
2022/12/09 11:27:29;;;;;;;8.57;4.93;;;20.00;99.90;;;;;;5033413;28;20037;-46
2022/12/09 11:30:11;;;;;;;13.52;6.50;;;20.00;99.90;;;;;;5033583;28;20026;-49
2022/12/09 11:32:55;;;;;;;13.43;7.18;;;20.00;99.90;;;;;;5033423;28;20028;-46
2022/12/09 11:35:43;;;;;;;9.52;6.10;;;20.00;99.90;;;;;;5033322;28;20061;-46
2022/12/09 11:38:47;;;;;;;14.20;6.82;;;20.00;99.90;;;;;;5023937;28;20034;-46
2022/12/09 11:42:12;;;;;;;11.05;6.75;;;20.00;99.90;;;;;;5032456;28;20028;-46
2022/12/09 11:44:31;;;;;;;12.20;6.47;;;20.00;99.90;;;;;;5030798;28;20476;-45
2022/12/09 11:47:12;;;;;;;10.95;6.75;;;20.00;99.90;;;;;;5033164;28;20087;-46
2022/12/09 11:49:49;;;;;;;12.02;6.65;;;20.00;99.90;;;;;;5015163;28;20510;-45
2022/12/09 11:52:17;;;;;;;16.58;8.27;;;20.00;99.90;;;;;;5033111;28;20033;-46
2022/12/09 11:55:11;;;;;;;17.27;8.25;;;20.10;99.90;;;;;;5033081;28;20029;-45
2022/12/09 11:57:57;;;;;;;21.15;9.55;;;20.00;99.90;;;;;;5032357;28;20479;-46
2022/12/09 12:00:26;;;;;;;15.65;7.90;;;20.00;99.90;;;;;;5031501;28;20124;-45
2022/12/09 12:03:19;;;;;;;14.38;8.40;;;20.00;99.90;;;;;;5032007;28;20075;-46
2022/12/09 12:05:50;;;;;;;15.30;7.70;;;20.00;99.90;;;;;;5032740;28;20369;-47
2022/12/09 12:08:33;;;;;;;14.70;8.07;;;20.00;99.90;;;;;;5032764;28;20108;-47
2022/12/09 12:11:11;;;;;;;16.25;8.38;;;20.00;99.90;;;;;;5026070;28;20022;-47
2022/12/09 12:13:45;;;;;;;29.70;8.82;;;20.00;99.90;;;;;;5012664;28;20030;-47
2022/12/09 12:16:18;;;;;;;14.85;8.43;;;20.00;99.90;;;;;;5013989;28;20025;-47
2022/12/09 12:18:52;;;;;;;13.85;7.82;;;20.00;99.90;;;;;;5022460;28;20033;-46
2022/12/09 12:21:46;;;;;;;17.42;7.22;;;20.00;99.90;;;;;;5032061;28;20353;-46
2022/12/09 12:24:24;;;;;;;14.10;7.95;;;20.10;99.90;;;;;;5019879;28;20129;-46
2022/12/09 12:27:09;;;;;;;14.98;7.95;;;20.00;99.90;;;;;;5011976;28;20492;-46
2022/12/09 12:30:02;;;;;;;18.55;8.35;;;20.00;99.90;;;;;;5020265;28;20030;-46
2022/12/09 12:32:46;;;;;;;22.77;8.05;;;20.00;99.90;;;;;;5031943;28;20075;-47
2022/12/09 12:35:45;;;;;;;17.85;8.50;;;20.00;99.90;;;;;;5032317;28;20382;-46
2022/12/09 12:38:20;;;;;;;17.83;8.57;;;20.10;99.90;;;;;;5019978;28;20028;-45
2022/12/09 12:41:01;;;;;;;22.45;9.77;;;20.00;99.90;;;;;;5011589;28;20442;-45
2022/12/09 12:46:47;;;;;;;14.80;8.00;;;20.00;99.90;;;;;;5016905;28;20391;-46
2022/12/09 12:49:30;;;;;;;20.38;8.23;;;20.00;99.90;;;;;;4997695;28;20471;-47
2022/12/09 12:52:24;;;;;;;15.55;7.55;;;20.00;99.90;;;;;;5023913;28;20387;-46
2022/12/09 12:54:50;;;;;;;21.23;9.45;;;20.10;99.90;;;;;;5010885;28;20026;-47
2022/12/09 12:57:31;;;;;;;20.77;9.18;;;20.10;99.90;;;;;;5010358;28;20522;-46
2022/12/09 13:00:01;;;;;;;17.35;7.38;;;20.10;99.90;;;;;;5011321;28;20116;-47
2022/12/09 13:02:30;;;;;;;19.20;8.05;;;20.10;99.90;;;;;;5026116;28;20028;-47
2022/12/09 13:05:21;;;;;;;16.80;8.75;;;20.20;99.90;;;;;;5031576;28;20040;-48
2022/12/09 13:07:53;;;;;;;16.15;8.75;;;20.20;99.90;;;;;;5044799;28;20096;-48
2022/12/09 13:10:59;;;;;;;19.48;9.07;;;20.20;99.90;;;;;;5017772;28;20084;-46